Time,TemperatureF,DewpointF,PressureIn,WindDirection,WindDirectionDegrees,WindSpeedMPH,WindSpeedGustMPH,Humidity,HourlyPrecipIn,Conditions,Clouds,dailyrainin,SoftwareType,DateUTC
2013-03-09 00:00:00,27.3,25.9,-100.00,South,186,0.0,0.0,94,0.00,,,0.01,meteohub,2013-03-09 05:00:00,
2013-03-09 00:01:00,27.1,25.7,-100.00,South,186,0.0,0.0,94,0.00,,,0.01,meteohub,2013-03-09 05:01:00,
2013-03-09 00:06:00,27.0,25.5,-100.00,South,186,0.0,0.0,94,0.00,,,0.00,meteohub,2013-03-09 05:06:00,
2013-03-09 00:11:00,26.6,25.2,-100.00,South,186,0.0,0.0,94,0.00,,,0.00,meteohub,2013-03-09 05:11:00,
2013-03-09 00:16:00,26.4,25.0,-100.00,South,186,0.0,0.0,94,0.00,,,0.00,meteohub,2013-03-09 05:16:00,
2013-03-09 00:21:00,26.2,24.8,-100.00,South,186,0.0,0.0,94,0.00,,,0.00,meteohub,2013-03-09 05:21:00,
2013-03-09 00:26:00,26.4,25.2,-100.00,South,186,0.0,0.0,95,0.00,,,0.00,meteohub,2013-03-09 05:26:00,
2013-03-09 00:29:00,26.6,25.3,-100.00,South,186,0.0,0.0,95,0.00,,,0.00,meteohub,2013-03-09 05:29:00,
2013-03-09 00:35:00,26.6,25.3,-100.00,South,186,0.0,0.0,95,0.00,,,0.00,meteohub,2013-03-09 05:35:00,
2013-03-09 00:40:00,26.6,25.3,-100.00,South,186,0.0,0.0,95,0.00,,,0.00,meteohub,2013-03-09 05:40:00,
2013-03-09 00:45:00,26.4,25.2,-100.00,South,186,0.0,0.0,95,0.00,,,0.00,meteohub,2013-03-09 05:45:00,
2013-03-09 00:50:00,26.2,25.0,-100.00,South,186,0.0,0.0,95,0.00,,,0.00,meteohub,2013-03-09 05:50:00,
2013-03-09 00:55:00,26.1,24.8,-100.00,South,186,0.0,0.0,95,0.00,,,0.00,meteohub,2013-03-09 05:55:00,
2013-03-09 01:00:00,25.7,24.4,-100.00,South,186,0.0,0.0,95,0.00,,,0.00,meteohub,2013-03-09 06:00:00,
2013-03-09 01:05:00,26.2,25.0,-100.00,South,186,0.0,0.0,95,0.00,,,0.00,meteohub,2013-03-09 06:05:00,
2013-03-09 01:10:00,26.4,25.5,-100.00,South,186,0.0,0.0,96,0.00,,,0.00,meteohub,2013-03-09 06:10:00,
2013-03-09 01:15:00,26.8,25.9,-100.00,South,186,0.0,0.0,96,0.00,,,0.00,meteohub,2013-03-09 06:15:00,
2013-03-09 01:20:00,27.0,26.1,-100.00,South,186,0.0,0.0,96,0.00,,,0.00,meteohub,2013-03-09 06:20:00,
2013-03-09 01:25:00,27.0,26.1,-100.00,South,186,0.0,0.0,96,0.00,,,0.00,meteohub,2013-03-09 06:25:00,
2013-03-09 01:30:00,27.0,26.1,-100.00,South,186,0.0,0.0,96,0.00,,,0.00,meteohub,2013-03-09 06:30:00,
2013-03-09 01:35:00,27.0,26.1,-100.00,South,186,0.0,0.0,96,0.00,,,0.00,meteohub,2013-03-09 06:35:00,
2013-03-09 01:40:00,27.0,26.1,-100.00,South,186,0.0,0.0,96,0.00,,,0.00,meteohub,2013-03-09 06:40:00,
2013-03-09 01:45:00,27.0,26.1,-100.00,South,186,0.0,0.0,96,0.00,,,0.00,meteohub,2013-03-09 06:45:00,
2013-03-09 01:50:00,27.0,26.1,-100.00,South,186,0.0,0.0,96,0.00,,,0.00,meteohub,2013-03-09 06:50:00,
2013-03-09 01:55:00,27.1,26.2,-100.00,South,186,0.0,0.0,96,0.00,,,0.00,meteohub,2013-03-09 06:55:00,
2013-03-09 02:00:00,27.1,26.2,-100.00,South,186,0.0,0.0,96,0.00,,,0.00,meteohub,2013-03-09 07:00:00,
2013-03-09 02:05:00,27.1,26.2,-100.00,South,186,0.0,0.0,96,0.00,,,0.00,meteohub,2013-03-09 07:05:00,
2013-03-09 02:10:00,27.3,26.4,-100.00,South,186,0.0,0.0,96,0.00,,,0.00,meteohub,2013-03-09 07:10:00,
2013-03-09 02:15:00,27.3,26.4,-100.00,South,186,0.0,0.0,96,0.00,,,0.00,meteohub,2013-03-09 07:15:00,
2013-03-09 02:20:00,27.5,26.6,-100.00,South,186,0.0,0.0,96,0.00,,,0.00,meteohub,2013-03-09 07:20:00,
2013-03-09 02:25:00,27.5,26.6,-100.00,South,186,0.0,0.0,96,0.00,,,0.00,meteohub,2013-03-09 07:25:00,
2013-03-09 02:30:00,27.5,26.6,-100.00,South,186,0.0,0.0,96,0.00,,,0.00,meteohub,2013-03-09 07:30:00,
2013-03-09 02:35:00,27.5,26.6,-100.00,South,186,0.0,0.0,96,0.00,,,0.00,meteohub,2013-03-09 07:35:00,
2013-03-09 02:40:00,27.5,26.6,-100.00,South,186,0.0,0.0,96,0.00,,,0.00,meteohub,2013-03-09 07:40:00,
2013-03-09 02:45:00,27.3,26.4,-100.00,South,186,0.0,0.0,96,0.00,,,0.00,meteohub,2013-03-09 07:45:00,
2013-03-09 02:50:00,27.3,26.4,-100.00,South,186,0.0,0.0,96,0.00,,,0.00,meteohub,2013-03-09 07:50:00,
2013-03-09 02:55:00,27.3,26.4,-100.00,South,186,0.0,0.0,96,0.00,,,0.00,meteohub,2013-03-09 07:55:00,
2013-03-09 03:00:00,27.3,26.4,-100.00,South,186,0.0,0.0,96,0.00,,,0.00,meteohub,2013-03-09 08:00:00,
2013-03-09 03:05:00,27.3,26.4,-100.00,South,186,0.0,0.0,96,0.00,,,0.00,meteohub,2013-03-09 08:05:00,
2013-03-09 03:10:00,27.3,26.4,-100.00,South,186,0.0,0.0,96,0.00,,,0.00,meteohub,2013-03-09 08:10:00,
2013-03-09 03:15:00,27.3,26.4,-100.00,South,186,0.0,0.0,96,0.00,,,0.00,meteohub,2013-03-09 08:15:00,
2013-03-09 03:20:00,27.5,26.6,-100.00,South,186,0.0,0.0,96,0.00,,,0.00,meteohub,2013-03-09 08:20:00,
2013-03-09 03:25:00,27.5,26.6,-100.00,South,186,0.0,0.0,96,0.00,,,0.00,meteohub,2013-03-09 08:25:00,
2013-03-09 03:30:00,27.3,26.4,-100.00,South,186,0.0,0.0,96,0.00,,,0.00,meteohub,2013-03-09 08:30:00,
2013-03-09 03:35:00,27.3,26.4,-100.00,South,186,0.0,0.0,96,0.00,,,0.00,meteohub,2013-03-09 08:35:00,
2013-03-09 03:40:00,27.1,26.2,-100.00,South,186,0.0,0.0,96,0.00,,,0.00,meteohub,2013-03-09 08:40:00,
2013-03-09 03:45:00,26.8,25.5,-100.00,South,186,0.0,0.0,95,0.00,,,0.00,meteohub,2013-03-09 08:45:00,
2013-03-09 03:50:00,26.8,25.5,-100.00,South,186,0.0,0.0,95,0.00,,,0.00,meteohub,2013-03-09 08:50:00,
2013-03-09 03:55:00,26.4,25.2,-100.00,South,186,0.0,0.0,95,0.00,,,0.00,meteohub,2013-03-09 08:55:00,
2013-03-09 04:00:00,26.2,25.0,-100.00,South,186,0.0,0.0,95,0.00,,,0.00,meteohub,2013-03-09 09:00:00,
2013-03-09 04:05:00,26.1,25.2,-100.00,South,186,0.0,0.0,96,0.00,,,0.00,meteohub,2013-03-09 09:05:00,
2013-03-09 04:10:00,26.2,25.3,-100.00,South,186,0.0,0.0,96,0.00,,,0.00,meteohub,2013-03-09 09:10:00,
2013-03-09 04:15:00,26.4,25.5,-100.00,South,186,0.0,0.0,96,0.00,,,0.00,meteohub,2013-03-09 09:15:00,
2013-03-09 04:20:00,26.4,25.5,-100.00,South,186,0.0,0.0,96,0.00,,,0.00,meteohub,2013-03-09 09:20:00,
2013-03-09 04:25:00,26.6,25.7,-100.00,South,186,0.0,0.0,96,0.00,,,0.00,meteohub,2013-03-09 09:25:00,
2013-03-09 04:30:00,26.6,25.7,-100.00,South,186,0.0,0.0,96,0.00,,,0.00,meteohub,2013-03-09 09:30:00,
2013-03-09 04:36:00,26.6,25.7,-100.00,South,186,0.0,0.0,96,0.00,,,0.00,meteohub,2013-03-09 09:36:00,
2013-03-09 04:41:00,26.4,25.5,-100.00,South,186,0.0,0.0,96,0.00,,,0.00,meteohub,2013-03-09 09:41:00,
2013-03-09 04:46:00,26.4,25.5,-100.00,South,186,0.0,0.0,96,0.00,,,0.00,meteohub,2013-03-09 09:46:00,
2013-03-09 04:51:00,26.4,25.5,-100.00,South,186,0.0,0.0,96,0.00,,,0.00,meteohub,2013-03-09 09:51:00,
2013-03-09 04:56:00,26.1,25.2,-100.00,South,186,0.0,0.0,96,0.00,,,0.00,meteohub,2013-03-09 09:56:00,
2013-03-09 05:01:00,25.7,24.4,-100.00,South,186,0.0,0.0,95,0.00,,,0.00,meteohub,2013-03-09 10:01:00,
2013-03-09 05:06:00,25.3,24.1,-100.00,South,186,0.0,0.0,95,0.00,,,0.00,meteohub,2013-03-09 10:06:00,
2013-03-09 05:11:00,25.3,24.4,-100.00,South,186,0.0,0.0,96,0.00,,,0.00,meteohub,2013-03-09 10:11:00,
2013-03-09 05:16:00,25.5,24.6,-100.00,South,186,0.0,0.0,96,0.00,,,0.00,meteohub,2013-03-09 10:16:00,
2013-03-09 05:21:00,25.5,24.6,-100.00,South,186,0.0,0.0,96,0.00,,,0.00,meteohub,2013-03-09 10:21:00,
2013-03-09 05:26:00,25.9,25.0,-100.00,South,186,0.0,0.0,96,0.00,,,0.00,meteohub,2013-03-09 10:26:00,
2013-03-09 05:31:00,25.9,25.0,-100.00,South,186,0.0,0.0,96,0.00,,,0.00,meteohub,2013-03-09 10:31:00,
2013-03-09 05:36:00,26.1,25.2,-100.00,South,186,0.0,0.0,96,0.00,,,0.00,meteohub,2013-03-09 10:36:00,
2013-03-09 05:41:00,26.2,25.3,-100.00,South,186,0.0,0.0,96,0.00,,,0.00,meteohub,2013-03-09 10:41:00,
2013-03-09 05:46:00,26.2,25.3,-100.00,South,186,0.0,0.0,96,0.00,,,0.00,meteohub,2013-03-09 10:46:00,
2013-03-09 05:51:00,26.2,25.3,-100.00,South,186,0.0,0.0,96,0.00,,,0.00,meteohub,2013-03-09 10:51:00,
2013-03-09 05:56:00,26.4,25.5,-100.00,South,186,0.0,0.0,96,0.00,,,0.00,meteohub,2013-03-09 10:56:00,
2013-03-09 06:01:00,26.4,25.5,-100.00,South,186,0.0,0.0,96,0.00,,,0.00,meteohub,2013-03-09 11:01:00,
2013-03-09 06:06:00,26.2,25.3,-100.00,South,186,0.0,0.0,96,0.00,,,0.00,meteohub,2013-03-09 11:06:00,
2013-03-09 06:11:00,26.4,25.5,-100.00,South,186,0.0,0.0,96,0.00,,,0.00,meteohub,2013-03-09 11:11:00,
2013-03-09 06:16:00,26.4,25.5,-100.00,South,186,0.0,0.0,96,0.00,,,0.00,meteohub,2013-03-09 11:16:00,
2013-03-09 06:21:00,26.6,25.7,-100.00,South,186,0.0,0.0,96,0.00,,,0.00,meteohub,2013-03-09 11:21:00,
2013-03-09 06:26:00,26.8,25.9,-100.00,South,186,0.0,0.0,96,0.00,,,0.00,meteohub,2013-03-09 11:26:00,
2013-03-09 06:31:00,26.8,25.9,-100.00,South,186,0.0,0.0,96,0.00,,,0.00,meteohub,2013-03-09 11:31:00,
2013-03-09 06:36:00,26.8,25.9,-100.00,South,186,0.0,0.0,96,0.00,,,0.00,meteohub,2013-03-09 11:36:00,
2013-03-09 06:41:00,26.8,25.9,-100.00,South,186,0.0,0.0,96,0.00,,,0.00,meteohub,2013-03-09 11:41:00,
2013-03-09 06:46:00,26.8,25.9,-100.00,South,186,0.0,0.0,96,0.00,,,0.00,meteohub,2013-03-09 11:46:00,
2013-03-09 06:51:00,27.0,26.1,-100.00,South,186,0.0,0.0,96,0.00,,,0.00,meteohub,2013-03-09 11:51:00,
2013-03-09 06:56:00,27.1,26.2,-100.00,South,186,0.0,0.0,96,0.00,,,0.00,meteohub,2013-03-09 11:56:00,
2013-03-09 07:01:00,27.7,26.6,-100.00,South,186,0.0,0.0,96,0.00,,,0.00,meteohub,2013-03-09 12:01:00,
2013-03-09 07:06:00,28.0,27.0,-100.00,South,186,0.0,0.0,96,0.00,,,0.00,meteohub,2013-03-09 12:06:00,
2013-03-09 07:11:00,28.6,27.5,-100.00,South,186,0.0,0.0,96,0.00,,,0.00,meteohub,2013-03-09 12:11:00,
2013-03-09 07:16:00,29.1,28.0,-100.00,South,186,0.0,0.0,96,0.00,,,0.00,meteohub,2013-03-09 12:16:00,
2013-03-09 07:21:00,29.7,28.6,-100.00,South,186,0.0,0.0,96,0.00,,,0.00,meteohub,2013-03-09 12:21:00,
2013-03-09 07:26:00,30.4,29.3,-100.00,South,186,0.0,0.0,96,0.00,,,0.00,meteohub,2013-03-09 12:26:00,
2013-03-09 07:31:00,31.1,29.8,-100.00,South,186,0.0,0.0,95,0.00,,,0.00,meteohub,2013-03-09 12:31:00,
2013-03-09 07:36:00,31.8,30.4,-100.00,South,186,0.0,0.0,94,0.00,,,0.00,meteohub,2013-03-09 12:36:00,
2013-03-09 07:41:00,32.5,30.7,-100.00,South,186,0.0,0.0,93,0.00,,,0.00,meteohub,2013-03-09 12:41:00,
2013-03-09 07:46:00,33.3,31.5,-100.00,South,184,0.0,0.0,93,0.00,,,0.00,meteohub,2013-03-09 12:46:00,
2013-03-09 07:51:00,33.6,31.5,-100.00,South,184,0.0,0.0,92,0.00,,,0.00,meteohub,2013-03-09 12:51:00,
2013-03-09 07:56:00,34.0,31.8,-100.00,South,176,0.0,0.0,92,0.00,,,0.00,meteohub,2013-03-09 12:56:00,
2013-03-09 08:02:00,34.2,31.8,-100.00,SSW,212,1.0,1.0,91,0.00,,,0.00,meteohub,2013-03-09 13:02:00,
2013-03-09 08:07:00,34.3,32.0,-100.00,SW,219,0.0,1.0,91,0.00,,,0.00,meteohub,2013-03-09 13:07:00,
2013-03-09 08:12:00,34.5,32.2,-100.00,SSW,196,1.0,1.0,91,0.00,,,0.00,meteohub,2013-03-09 13:12:00,
2013-03-09 08:17:00,34.5,32.2,-100.00,SW,232,1.0,2.0,91,0.00,,,0.00,meteohub,2013-03-09 13:17:00,
2013-03-09 08:22:00,34.9,32.5,-100.00,SW,233,1.0,4.0,91,0.00,,,0.00,meteohub,2013-03-09 13:22:00,
2013-03-09 08:27:00,34.9,32.5,-100.00,SSW,209,2.0,4.0,91,0.00,,,0.00,meteohub,2013-03-09 13:27:00,
2013-03-09 08:32:00,35.2,33.1,-100.00,SW,233,3.0,4.0,92,0.00,,,0.00,meteohub,2013-03-09 13:32:00,
2013-03-09 08:37:00,35.2,32.5,-100.00,SSW,204,2.0,3.0,90,0.00,,,0.00,meteohub,2013-03-09 13:37:00,
2013-03-09 08:42:00,35.4,33.1,-100.00,SW,233,1.0,3.0,91,0.00,,,0.00,meteohub,2013-03-09 13:42:00,
2013-03-09 08:47:00,35.4,33.1,-100.00,SW,227,2.0,3.0,91,0.00,,,0.00,meteohub,2013-03-09 13:47:00,
2013-03-09 08:52:00,35.8,33.4,-100.00,WSW,244,1.0,3.0,91,0.00,,,0.00,meteohub,2013-03-09 13:52:00,
2013-03-09 08:57:00,36.0,33.6,-100.00,SW,220,0.0,3.0,91,0.00,,,0.00,meteohub,2013-03-09 13:57:00,
2013-03-09 09:02:00,36.0,33.3,-100.00,SSW,194,0.0,3.0,90,0.00,,,0.00,meteohub,2013-03-09 14:02:00,
2013-03-09 09:07:00,36.1,33.4,-100.00,WSW,250,0.0,2.0,90,0.00,,,0.00,meteohub,2013-03-09 14:07:00,
2013-03-09 09:12:00,36.3,33.6,-100.00,WSW,250,0.0,2.0,90,0.00,,,0.00,meteohub,2013-03-09 14:12:00,
2013-03-09 09:17:00,36.7,33.8,-100.00,SW,230,0.0,1.0,89,0.00,,,0.00,meteohub,2013-03-09 14:17:00,
2013-03-09 09:22:00,36.7,33.4,-100.00,East,100,0.0,1.0,88,0.00,,,0.00,meteohub,2013-03-09 14:22:00,
2013-03-09 09:27:00,36.9,33.6,-100.00,SW,232,0.0,1.0,88,0.00,,,0.00,meteohub,2013-03-09 14:27:00,
2013-03-09 09:32:00,37.2,34.0,-100.00,SSE,151,0.0,2.0,88,0.00,,,0.00,meteohub,2013-03-09 14:32:00,
2013-03-09 09:37:00,37.8,34.5,-100.00,SSW,200,1.0,2.0,88,0.00,,,0.00,meteohub,2013-03-09 14:37:00,
2013-03-09 09:42:00,38.7,35.1,-100.00,SSE,150,1.0,2.0,87,0.00,,,0.00,meteohub,2013-03-09 14:42:00,
2013-03-09 09:47:00,38.5,34.2,-100.00,SSE,159,1.0,2.0,84,0.00,,,0.00,meteohub,2013-03-09 14:47:00,
2013-03-09 09:52:00,38.5,34.2,-100.00,SW,230,1.0,2.0,84,0.00,,,0.00,meteohub,2013-03-09 14:52:00,
2013-03-09 09:57:00,38.3,34.2,-100.00,SSE,149,0.0,2.0,85,0.00,,,0.00,meteohub,2013-03-09 14:57:00,
2013-03-09 10:03:00,39.0,34.5,-100.00,SSE,167,0.0,2.0,84,0.00,,,0.00,meteohub,2013-03-09 15:03:00,
2013-03-09 10:07:00,39.6,34.9,-100.00,SE,141,2.0,2.0,83,0.00,,,0.00,meteohub,2013-03-09 15:07:00,
2013-03-09 10:12:00,39.7,35.1,-100.00,NNE,27,1.0,2.0,83,0.00,,,0.00,meteohub,2013-03-09 15:12:00,
2013-03-09 10:18:00,39.9,34.9,-100.00,ESE,113,2.0,2.0,82,0.00,,,0.00,meteohub,2013-03-09 15:18:00,
2013-03-09 10:23:00,40.1,34.7,-100.00,South,176,0.0,2.0,81,0.00,,,0.00,meteohub,2013-03-09 15:23:00,
2013-03-09 10:28:00,40.3,34.5,-100.00,SSE,157,1.0,2.0,80,0.00,,,0.00,meteohub,2013-03-09 15:28:00,
2013-03-09 10:33:00,40.8,34.9,-100.00,SE,124,0.0,2.0,79,0.00,,,0.00,meteohub,2013-03-09 15:33:00,
2013-03-09 10:38:00,41.4,34.7,-100.00,West,273,0.0,2.0,77,0.00,,,0.00,meteohub,2013-03-09 15:38:00,
2013-03-09 10:43:00,41.5,35.6,-100.00,SE,134,0.0,2.0,79,0.00,,,0.00,meteohub,2013-03-09 15:43:00,
2013-03-09 10:48:00,41.7,34.3,-100.00,East,84,1.0,2.0,75,0.00,,,0.00,meteohub,2013-03-09 15:48:00,
2013-03-09 10:53:00,41.5,35.2,-100.00,SSW,206,0.0,2.0,78,0.00,,,0.00,meteohub,2013-03-09 15:53:00,
2013-03-09 10:58:00,42.4,35.1,-100.00,SSW,204,1.0,2.0,75,0.00,,,0.00,meteohub,2013-03-09 15:58:00,
2013-03-09 11:03:00,42.4,34.3,-100.00,SW,227,0.0,2.0,73,0.00,,,0.00,meteohub,2013-03-09 16:03:00,
2013-03-09 11:08:00,42.3,34.2,-100.00,NE,44,1.0,2.0,73,0.00,,,0.00,meteohub,2013-03-09 16:08:00,
2013-03-09 11:13:00,42.4,35.4,-100.00,NE,35,0.0,2.0,76,0.00,,,0.00,meteohub,2013-03-09 16:13:00,
2013-03-09 11:18:00,42.8,35.1,-100.00,ESE,117,0.0,2.0,74,0.00,,,0.00,meteohub,2013-03-09 16:18:00,
2013-03-09 11:23:00,43.3,34.9,-100.00,WSW,258,0.0,2.0,72,0.00,,,0.00,meteohub,2013-03-09 16:23:00,
2013-03-09 11:28:00,43.5,35.4,-100.00,NNE,32,2.0,2.0,73,0.00,,,0.00,meteohub,2013-03-09 16:28:00,
2013-03-09 11:33:00,43.7,35.6,-100.00,NW,325,1.0,2.0,73,0.00,,,0.00,meteohub,2013-03-09 16:33:00,
2013-03-09 11:38:00,43.5,35.4,-100.00,NE,53,0.0,6.0,73,0.00,,,0.00,meteohub,2013-03-09 16:38:00,
2013-03-09 11:43:00,43.9,34.7,-100.00,ESE,122,0.0,6.0,70,0.00,,,0.00,meteohub,2013-03-09 16:43:00,
2013-03-09 11:48:00,44.2,35.4,-100.00,SW,220,0.0,6.0,71,0.00,,,0.00,meteohub,2013-03-09 16:48:00,
2013-03-09 11:53:00,44.2,35.4,-100.00,NNE,24,1.0,4.0,71,0.00,,,0.00,meteohub,2013-03-09 16:53:00,
2013-03-09 11:58:00,44.8,36.0,-100.00,SE,127,1.0,4.0,71,0.00,,,0.00,meteohub,2013-03-09 16:58:00,
2013-03-09 12:03:00,44.8,35.6,-100.00,East,101,1.0,4.0,70,0.00,,,0.00,meteohub,2013-03-09 17:03:00,
2013-03-09 12:08:00,45.0,35.4,-100.00,WSW,250,0.0,3.0,69,0.00,,,0.00,meteohub,2013-03-09 17:08:00,
2013-03-09 12:13:00,45.3,35.4,-100.00,NE,34,3.0,3.0,68,0.00,,,0.00,meteohub,2013-03-09 17:13:00,
2013-03-09 12:18:00,44.8,35.2,-100.00,NE,52,2.0,2.0,69,0.00,,,0.00,meteohub,2013-03-09 17:18:00,
2013-03-09 12:23:00,44.2,34.3,-100.00,North,11,1.0,3.0,68,0.00,,,0.00,meteohub,2013-03-09 17:23:00,
2013-03-09 12:28:00,44.8,34.5,-100.00,North,9,0.0,3.0,67,0.00,,,0.00,meteohub,2013-03-09 17:28:00,
2013-03-09 12:33:00,45.1,35.2,-100.00,NE,44,3.0,3.0,68,0.00,,,0.00,meteohub,2013-03-09 17:33:00,
2013-03-09 12:38:00,43.7,35.2,-100.00,ENE,61,1.0,4.0,72,0.00,,,0.00,meteohub,2013-03-09 17:38:00,
2013-03-09 12:43:00,43.5,36.5,-100.00,NNE,15,4.0,4.0,76,0.00,,,0.00,meteohub,2013-03-09 17:43:00,
2013-03-09 12:48:00,43.9,36.1,-100.00,NE,54,3.0,4.0,74,0.00,,,0.00,meteohub,2013-03-09 17:48:00,
2013-03-09 12:53:00,43.5,36.1,-100.00,NE,39,2.0,4.0,75,0.00,,,0.00,meteohub,2013-03-09 17:53:00,
2013-03-09 12:58:00,43.3,36.9,-100.00,NE,36,4.0,4.0,78,0.00,,,0.00,meteohub,2013-03-09 17:58:00,
2013-03-09 13:03:00,43.0,37.2,-100.00,NNW,345,2.0,4.0,80,0.00,,,0.00,meteohub,2013-03-09 18:03:00,
2013-03-09 13:09:00,43.3,36.7,-100.00,NE,49,3.0,6.0,77,0.00,,,0.00,meteohub,2013-03-09 18:09:00,
2013-03-09 13:14:00,43.0,36.3,-100.00,NNE,24,2.0,6.0,77,0.00,,,0.00,meteohub,2013-03-09 18:14:00,
2013-03-09 13:19:00,42.8,36.1,-100.00,NE,39,3.0,6.0,77,0.00,,,0.00,meteohub,2013-03-09 18:19:00,
2013-03-09 13:24:00,42.3,35.6,-100.00,NNE,24,4.0,5.0,77,0.00,,,0.00,meteohub,2013-03-09 18:24:00,
2013-03-09 13:29:00,41.9,35.8,-100.00,NNE,32,4.0,7.0,79,0.00,,,0.00,meteohub,2013-03-09 18:29:00,
2013-03-09 13:34:00,41.4,35.4,-100.00,NE,47,3.0,7.0,79,0.00,,,0.00,meteohub,2013-03-09 18:34:00,
2013-03-09 13:39:00,41.5,36.5,-100.00,NNE,32,3.0,7.0,82,0.00,,,0.00,meteohub,2013-03-09 18:39:00,
2013-03-09 13:44:00,42.3,36.0,-100.00,NE,34,2.0,6.0,78,0.00,,,0.00,meteohub,2013-03-09 18:44:00,
2013-03-09 13:49:00,42.3,36.5,-100.00,NE,46,2.0,5.0,80,0.00,,,0.00,meteohub,2013-03-09 18:49:00,
2013-03-09 13:54:00,42.6,36.3,-100.00,North,11,3.0,5.0,78,0.00,,,0.00,meteohub,2013-03-09 18:54:00,
2013-03-09 14:00:00,43.2,36.7,-100.00,NE,40,2.0,5.0,78,0.00,,,0.00,meteohub,2013-03-09 19:00:00,
2013-03-09 14:05:00,43.9,37.2,-100.00,NNE,25,3.0,5.0,77,0.00,,,0.00,meteohub,2013-03-09 19:05:00,
2013-03-09 14:10:00,43.5,36.5,-100.00,NE,46,2.0,5.0,76,0.00,,,0.00,meteohub,2013-03-09 19:10:00,
2013-03-09 14:15:00,43.0,36.0,-100.00,NNE,16,3.0,5.0,76,0.00,,,0.00,meteohub,2013-03-09 19:15:00,
2013-03-09 14:20:00,43.0,36.3,-100.00,NNE,31,4.0,5.0,77,0.00,,,0.00,meteohub,2013-03-09 19:20:00,
2013-03-09 14:25:00,43.0,36.0,-100.00,NE,41,3.0,5.0,76,0.00,,,0.00,meteohub,2013-03-09 19:25:00,
2013-03-09 14:30:00,43.0,34.5,-100.00,NW,320,2.0,5.0,72,0.00,,,0.00,meteohub,2013-03-09 19:30:00,
2013-03-09 14:35:00,43.9,34.3,-100.00,WNW,303,6.0,6.0,69,0.00,,,0.00,meteohub,2013-03-09 19:35:00,
2013-03-09 14:40:00,44.2,35.1,-100.00,WNW,300,4.0,7.0,70,0.00,,,0.00,meteohub,2013-03-09 19:40:00,
2013-03-09 14:45:00,44.4,35.6,-100.00,NW,324,5.0,7.0,71,0.00,,,0.00,meteohub,2013-03-09 19:45:00,
2013-03-09 14:50:00,44.4,34.2,-100.00,NW,317,5.0,7.0,67,0.00,,,0.00,meteohub,2013-03-09 19:50:00,
2013-03-09 14:55:00,44.6,34.3,-100.00,NNE,32,3.0,7.0,67,0.00,,,0.00,meteohub,2013-03-09 19:55:00,
2013-03-09 15:00:00,44.2,34.0,-100.00,NNW,328,3.0,7.0,67,0.00,,,0.00,meteohub,2013-03-09 20:00:00,
2013-03-09 15:05:00,44.2,33.6,-100.00,North,352,2.0,6.0,66,0.00,,,0.00,meteohub,2013-03-09 20:05:00,
2013-03-09 15:10:00,43.9,32.2,-100.00,North,357,5.0,5.0,63,0.00,,,0.00,meteohub,2013-03-09 20:10:00,
2013-03-09 15:15:00,43.9,34.3,-100.00,NNW,337,3.0,6.0,69,0.00,,,0.00,meteohub,2013-03-09 20:15:00,
2013-03-09 15:20:00,43.9,34.7,-100.00,North,0,3.0,6.0,70,0.00,,,0.00,meteohub,2013-03-09 20:20:00,
2013-03-09 15:25:00,43.9,34.7,-100.00,NW,316,3.0,6.0,70,0.00,,,0.00,meteohub,2013-03-09 20:25:00,
2013-03-09 15:30:00,43.5,34.3,-100.00,North,359,5.0,5.0,70,0.00,,,0.00,meteohub,2013-03-09 20:30:00,
2013-03-09 15:35:00,43.5,35.1,-100.00,NNW,343,2.0,6.0,72,0.00,,,0.00,meteohub,2013-03-09 20:35:00,
2013-03-09 15:40:00,43.3,34.5,-100.00,North,6,4.0,6.0,71,0.00,,,0.00,meteohub,2013-03-09 20:40:00,
2013-03-09 15:45:00,43.3,34.5,-100.00,NNW,330,2.0,6.0,71,0.00,,,0.00,meteohub,2013-03-09 20:45:00,
2013-03-09 15:50:00,43.3,33.8,-100.00,NW,304,1.0,5.0,69,0.00,,,0.00,meteohub,2013-03-09 20:50:00,
2013-03-09 15:55:00,43.5,34.7,-100.00,NNW,332,3.0,5.0,71,0.00,,,0.00,meteohub,2013-03-09 20:55:00,
2013-03-09 16:00:00,43.5,34.0,-100.00,NW,316,2.0,5.0,69,0.00,,,0.00,meteohub,2013-03-09 21:00:00,
2013-03-09 16:05:00,43.3,33.8,-100.00,NW,326,3.0,7.0,69,0.00,,,0.00,meteohub,2013-03-09 21:05:00,
2013-03-09 16:10:00,43.3,34.2,-100.00,North,352,1.0,7.0,70,0.00,,,0.00,meteohub,2013-03-09 21:10:00,
2013-03-09 16:15:00,43.0,33.8,-100.00,NW,321,1.0,6.0,70,0.00,,,0.00,meteohub,2013-03-09 21:15:00,
2013-03-09 16:20:00,42.8,34.0,-100.00,NW,321,3.0,5.0,71,0.00,,,0.00,meteohub,2013-03-09 21:20:00,
2013-03-09 16:25:00,43.0,34.9,-100.00,NE,37,2.0,5.0,73,0.00,,,0.00,meteohub,2013-03-09 21:25:00,
2013-03-09 16:30:00,43.0,33.8,-100.00,NW,325,2.0,5.0,70,0.00,,,0.00,meteohub,2013-03-09 21:30:00,
2013-03-09 16:35:00,42.6,33.8,-100.00,NNW,327,4.0,5.0,71,0.00,,,0.00,meteohub,2013-03-09 21:35:00,
2013-03-09 16:40:00,42.4,34.0,-100.00,NW,316,2.0,6.0,72,0.00,,,0.00,meteohub,2013-03-09 21:40:00,
2013-03-09 16:45:00,42.4,34.3,-100.00,NNW,344,3.0,6.0,73,0.00,,,0.00,meteohub,2013-03-09 21:45:00,
2013-03-09 16:50:00,42.3,34.5,-100.00,NNW,329,3.0,6.0,74,0.00,,,0.00,meteohub,2013-03-09 21:50:00,
2013-03-09 16:55:00,42.1,34.7,-100.00,NNE,15,2.0,4.0,75,0.00,,,0.00,meteohub,2013-03-09 21:55:00,
2013-03-09 17:00:00,42.1,34.7,-100.00,North,359,0.0,5.0,75,0.00,,,0.00,meteohub,2013-03-09 22:00:00,
2013-03-09 17:05:00,41.7,34.3,-100.00,NNW,345,1.0,5.0,75,0.00,,,0.00,meteohub,2013-03-09 22:05:00,
2013-03-09 17:11:00,41.2,34.2,-100.00,NNW,342,2.0,4.0,76,0.00,,,0.00,meteohub,2013-03-09 22:11:00,
2013-03-09 17:16:00,40.8,34.2,-100.00,North,5,0.0,4.0,77,0.00,,,0.00,meteohub,2013-03-09 22:16:00,
2013-03-09 17:21:00,40.8,34.5,-100.00,NNW,333,1.0,4.0,78,0.00,,,0.00,meteohub,2013-03-09 22:21:00,
2013-03-09 17:26:00,40.6,34.3,-100.00,NNW,342,1.0,4.0,78,0.00,,,0.00,meteohub,2013-03-09 22:26:00,
2013-03-09 17:31:00,40.5,34.2,-100.00,NNW,333,2.0,4.0,78,0.00,,,0.00,meteohub,2013-03-09 22:31:00,
2013-03-09 17:36:00,39.9,34.0,-100.00,NNW,336,1.0,5.0,79,0.00,,,0.00,meteohub,2013-03-09 22:36:00,
2013-03-09 17:41:00,39.7,34.2,-100.00,North,356,1.0,5.0,80,0.00,,,0.00,meteohub,2013-03-09 22:41:00,
2013-03-09 17:46:00,39.4,33.8,-100.00,NNW,345,1.0,5.0,80,0.00,,,0.00,meteohub,2013-03-09 22:46:00,
2013-03-09 17:51:00,39.0,33.4,-100.00,NNE,24,1.0,4.0,80,0.00,,,0.00,meteohub,2013-03-09 22:51:00,
2013-03-09 17:56:00,38.8,33.4,-100.00,NW,321,1.0,4.0,81,0.00,,,0.00,meteohub,2013-03-09 22:56:00,
2013-03-09 18:01:00,38.5,33.8,-100.00,NW,314,2.0,4.0,83,0.00,,,0.00,meteohub,2013-03-09 23:01:00,
2013-03-09 18:06:00,37.9,33.3,-100.00,NNW,331,1.0,2.0,83,0.00,,,0.00,meteohub,2013-03-09 23:06:00,
2013-03-09 18:11:00,37.8,33.1,-100.00,NW,321,0.0,2.0,83,0.00,,,0.00,meteohub,2013-03-09 23:11:00,
2013-03-09 18:16:00,37.4,33.1,-100.00,NNW,328,0.0,2.0,84,0.00,,,0.00,meteohub,2013-03-09 23:16:00,
2013-03-09 18:21:00,37.0,32.7,-100.00,NNW,328,1.0,2.0,84,0.00,,,0.00,meteohub,2013-03-09 23:21:00,
2013-03-09 18:26:00,36.9,32.5,-100.00,NNE,20,0.0,2.0,84,0.00,,,0.00,meteohub,2013-03-09 23:26:00,
2013-03-09 18:31:00,36.5,32.4,-100.00,NW,326,1.0,1.0,85,0.00,,,0.00,meteohub,2013-03-09 23:31:00,
2013-03-09 18:36:00,36.3,32.2,-100.00,WNW,295,0.0,1.0,85,0.00,,,0.00,meteohub,2013-03-09 23:36:00,
2013-03-09 18:41:00,36.1,32.0,-100.00,WNW,300,0.0,1.0,85,0.00,,,0.00,meteohub,2013-03-09 23:41:00,
2013-03-09 18:46:00,36.0,31.8,-100.00,WNW,300,0.0,1.0,85,0.00,,,0.00,meteohub,2013-03-09 23:46:00,
2013-03-09 18:51:00,35.8,31.5,-100.00,WNW,300,0.0,1.0,84,0.00,,,0.00,meteohub,2013-03-09 23:51:00,
2013-03-09 18:56:00,35.4,31.3,-100.00,WNW,300,0.0,1.0,85,0.00,,,0.00,meteohub,2013-03-09 23:56:00,
2013-03-09 19:01:00,35.2,31.1,-100.00,WNW,300,0.0,1.0,85,0.00,,,0.00,meteohub,2013-03-10 00:01:00,
2013-03-09 19:06:00,34.9,30.9,-100.00,WNW,301,0.0,0.0,85,0.00,,,0.00,meteohub,2013-03-10 00:06:00,
2013-03-09 19:11:00,34.9,30.9,-100.00,NW,322,0.0,1.0,85,0.00,,,0.00,meteohub,2013-03-10 00:11:00,
2013-03-09 19:16:00,34.5,30.2,-100.00,NW,322,0.0,1.0,84,0.00,,,0.00,meteohub,2013-03-10 00:16:00,
2013-03-09 19:21:00,34.3,30.4,-100.00,NW,322,0.0,1.0,85,0.00,,,0.00,meteohub,2013-03-10 00:21:00,
2013-03-09 19:26:00,34.0,30.2,-100.00,NW,322,0.0,0.0,86,0.00,,,0.00,meteohub,2013-03-10 00:26:00,
2013-03-09 19:31:00,34.0,30.6,-100.00,NW,321,0.0,0.0,87,0.00,,,0.00,meteohub,2013-03-10 00:31:00,
2013-03-09 19:36:00,34.2,30.9,-100.00,NE,49,0.0,0.0,88,0.00,,,0.00,meteohub,2013-03-10 00:36:00,
2013-03-09 19:41:00,34.3,31.1,-100.00,NE,46,0.0,1.0,88,0.00,,,0.00,meteohub,2013-03-10 00:41:00,
2013-03-09 19:46:00,34.3,31.1,-100.00,ENE,65,0.0,1.0,88,0.00,,,0.00,meteohub,2013-03-10 00:46:00,
2013-03-09 19:51:00,34.3,31.1,-100.00,ENE,58,0.0,1.0,88,0.00,,,0.00,meteohub,2013-03-10 00:51:00,
2013-03-09 19:56:00,34.5,31.3,-100.00,NE,47,0.0,3.0,88,0.00,,,0.00,meteohub,2013-03-10 00:56:00,
2013-03-09 20:01:00,34.5,31.3,-100.00,NE,55,0.0,3.0,88,0.00,,,0.00,meteohub,2013-03-10 01:01:00,
2013-03-09 20:06:00,34.7,31.5,-100.00,NE,56,0.0,3.0,88,0.00,,,0.00,meteohub,2013-03-10 01:06:00,
2013-03-09 20:11:00,34.9,31.6,-100.00,NE,39,0.0,3.0,88,0.00,,,0.00,meteohub,2013-03-10 01:11:00,
2013-03-09 20:16:00,34.5,31.3,-100.00,ENE,78,0.0,3.0,88,0.00,,,0.00,meteohub,2013-03-10 01:16:00,
2013-03-09 20:21:00,34.5,31.6,-100.00,East,79,0.0,3.0,89,0.00,,,0.00,meteohub,2013-03-10 01:21:00,
2013-03-09 20:26:00,34.5,31.6,-100.00,NE,47,0.0,1.0,89,0.00,,,0.00,meteohub,2013-03-10 01:26:00,
2013-03-09 20:31:00,34.9,32.0,-100.00,ENE,75,0.0,2.0,89,0.00,,,0.00,meteohub,2013-03-10 01:31:00,
2013-03-09 20:36:00,34.7,31.5,-100.00,ESE,104,0.0,2.0,88,0.00,,,0.00,meteohub,2013-03-10 01:36:00,
2013-03-09 20:41:00,34.5,31.6,-100.00,East,84,0.0,2.0,89,0.00,,,0.00,meteohub,2013-03-10 01:41:00,
2013-03-09 20:46:00,34.5,31.6,-100.00,ENE,65,0.0,3.0,89,0.00,,,0.00,meteohub,2013-03-10 01:46:00,
2013-03-09 20:51:00,34.7,31.8,-100.00,ENE,59,2.0,3.0,89,0.00,,,0.00,meteohub,2013-03-10 01:51:00,
2013-03-09 20:56:00,34.9,32.0,-100.00,ENE,63,0.0,3.0,89,0.00,,,0.00,meteohub,2013-03-10 01:56:00,
2013-03-09 21:01:00,34.9,32.0,-100.00,ENE,63,0.0,3.0,89,0.00,,,0.00,meteohub,2013-03-10 02:01:00,
2013-03-09 21:06:00,34.9,32.0,-100.00,East,85,0.0,3.0,89,0.00,,,0.00,meteohub,2013-03-10 02:06:00,
2013-03-09 21:11:00,34.7,31.8,-100.00,NE,49,1.0,3.0,89,0.00,,,0.00,meteohub,2013-03-10 02:11:00,
2013-03-09 21:16:00,34.7,32.0,-100.00,East,86,1.0,3.0,90,0.00,,,0.00,meteohub,2013-03-10 02:16:00,
2013-03-09 21:21:00,34.7,32.0,-100.00,NE,46,0.0,3.0,90,0.00,,,0.00,meteohub,2013-03-10 02:21:00,
2013-03-09 21:26:00,34.7,31.8,-100.00,ENE,78,0.0,4.0,89,0.00,,,0.00,meteohub,2013-03-10 02:26:00,
2013-03-09 21:31:00,34.7,32.0,-100.00,ESE,102,0.0,4.0,90,0.00,,,0.00,meteohub,2013-03-10 02:31:00,
2013-03-09 21:37:00,34.5,31.6,-100.00,ENE,60,0.0,4.0,89,0.00,,,0.00,meteohub,2013-03-10 02:37:00,
2013-03-09 21:42:00,34.5,31.6,-100.00,ENE,60,0.0,2.0,89,0.00,,,0.00,meteohub,2013-03-10 02:42:00,
2013-03-09 21:47:00,34.3,31.5,-100.00,ENE,59,0.0,2.0,89,0.00,,,0.00,meteohub,2013-03-10 02:47:00,
2013-03-09 21:52:00,34.2,31.5,-100.00,ENE,75,1.0,2.0,90,0.00,,,0.00,meteohub,2013-03-10 02:52:00,
2013-03-09 21:57:00,34.5,31.6,-100.00,ENE,66,1.0,1.0,89,0.00,,,0.00,meteohub,2013-03-10 02:57:00,
2013-03-09 22:02:00,34.9,31.6,-100.00,ENE,63,0.0,2.0,88,0.00,,,0.00,meteohub,2013-03-10 03:02:00,
2013-03-09 22:07:00,35.1,31.6,-100.00,NE,53,1.0,2.0,87,0.00,,,0.00,meteohub,2013-03-10 03:07:00,
2013-03-09 22:12:00,35.4,31.6,-100.00,NE,45,1.0,2.0,86,0.00,,,0.00,meteohub,2013-03-10 03:12:00,
2013-03-09 22:17:00,35.6,31.5,-100.00,NE,49,1.0,3.0,85,0.00,,,0.00,meteohub,2013-03-10 03:17:00,
2013-03-09 22:22:00,35.8,31.5,-100.00,NE,49,0.0,3.0,84,0.00,,,0.00,meteohub,2013-03-10 03:22:00,
2013-03-09 22:27:00,35.8,31.5,-100.00,ENE,57,0.0,3.0,84,0.00,,,0.00,meteohub,2013-03-10 03:27:00,
2013-03-09 22:32:00,35.8,31.5,-100.00,NE,46,0.0,3.0,84,0.00,,,0.00,meteohub,2013-03-10 03:32:00,
2013-03-09 22:37:00,35.8,31.5,-100.00,ENE,61,0.0,2.0,84,0.00,,,0.00,meteohub,2013-03-10 03:37:00,
2013-03-09 22:42:00,35.2,30.9,-100.00,NE,41,0.0,2.0,84,0.00,,,0.00,meteohub,2013-03-10 03:42:00,
2013-03-09 22:47:00,34.5,30.7,-100.00,NE,41,0.0,2.0,86,0.00,,,0.00,meteohub,2013-03-10 03:47:00,
2013-03-09 22:52:00,34.2,30.7,-100.00,NE,41,0.0,1.0,87,0.00,,,0.00,meteohub,2013-03-10 03:52:00,
2013-03-09 22:57:00,34.0,30.7,-100.00,NE,41,0.0,1.0,88,0.00,,,0.00,meteohub,2013-03-10 03:57:00,
2013-03-09 23:02:00,34.0,30.7,-100.00,NE,41,0.0,1.0,88,0.00,,,0.00,meteohub,2013-03-10 04:02:00,
2013-03-09 23:07:00,33.6,30.4,-100.00,NE,41,0.0,1.0,88,0.00,,,0.00,meteohub,2013-03-10 04:07:00,
2013-03-09 23:12:00,33.4,30.6,-100.00,NE,41,0.0,1.0,89,0.00,,,0.00,meteohub,2013-03-10 04:12:00,
2013-03-09 23:17:00,33.4,30.6,-100.00,NNW,338,0.0,1.0,89,0.00,,,0.00,meteohub,2013-03-10 04:17:00,
2013-03-09 23:22:00,33.4,30.6,-100.00,NNW,338,0.0,1.0,89,0.00,,,0.00,meteohub,2013-03-10 04:22:00,
2013-03-09 23:27:00,33.8,30.9,-100.00,North,11,0.0,1.0,89,0.00,,,0.00,meteohub,2013-03-10 04:27:00,
2013-03-09 23:32:00,34.2,30.9,-100.00,NNE,32,1.0,1.0,88,0.00,,,0.00,meteohub,2013-03-10 04:32:00,
2013-03-09 23:37:00,34.3,30.9,-100.00,ENE,75,0.0,1.0,87,0.00,,,0.00,meteohub,2013-03-10 04:37:00,
2013-03-09 23:42:00,34.3,30.6,-100.00,ENE,75,0.0,2.0,86,0.00,,,0.00,meteohub,2013-03-10 04:42:00,
2013-03-09 23:47:00,34.2,30.7,-100.00,ENE,76,0.0,2.0,87,0.00,,,0.00,meteohub,2013-03-10 04:47:00,
2013-03-09 23:52:00,34.9,30.9,-100.00,NNE,20,0.0,2.0,85,0.00,,,0.00,meteohub,2013-03-10 04:52:00,
2013-03-09 23:57:00,35.4,30.7,-100.00,NE,37,0.0,1.0,83,0.00,,,0.00,meteohub,2013-03-10 04:57:00,